createdAt,value
2022-09-03T00:01:25.375Z,6.57
2022-09-03T00:06:46.402Z,5.40
2022-09-03T00:12:09.937Z,4.82
2022-09-03T00:17:25.811Z,7.50
2022-09-03T00:22:33.310Z,4.50
2022-09-03T00:27:39.837Z,3.92
2022-09-03T00:32:47.382Z,3.55
2022-09-03T00:37:50.863Z,5.70
2022-09-03T00:43:07.022Z,6.53
2022-09-03T00:48:38.188Z,3.42
2022-09-03T00:54:01.380Z,3.20
2022-09-03T00:59:31.105Z,4.05
2022-09-03T01:04:44.904Z,4.63
2022-09-03T01:10:00.429Z,3.17
2022-09-03T01:15:07.669Z,4.70
2022-09-03T01:20:22.301Z,6.15
2022-09-03T01:30:54.709Z,5.00
2022-09-03T01:36:25.146Z,4.25
2022-09-03T01:42:20.479Z,5.45
2022-09-03T01:47:32.733Z,4.03
2022-09-03T01:53:07.734Z,2.53
2022-09-03T02:03:17.042Z,2.03
2022-09-03T02:08:19.550Z,2.72
2022-09-03T02:13:26.839Z,3.00
2022-09-03T02:18:41.529Z,2.78
2022-09-03T02:28:45.384Z,2.78
2022-09-03T02:33:48.953Z,3.00
2022-09-03T02:38:50.870Z,4.25
2022-09-03T02:44:02.839Z,1.88
2022-09-03T02:49:05.632Z,1.67
2022-09-03T02:54:08.365Z,5.63
2022-09-03T02:59:10.750Z,5.68
2022-09-03T03:04:12.484Z,1.60
2022-09-03T03:09:14.239Z,5.57
2022-09-03T03:14:16.082Z,4.68
2022-09-03T03:19:18.180Z,1.85
2022-09-03T03:24:20.016Z,6.00
2022-09-03T03:29:21.823Z,2.45
2022-09-03T03:34:23.539Z,1.20
2022-09-03T03:39:25.546Z,3.10
2022-09-03T03:44:27.239Z,4.75
2022-09-03T03:49:28.923Z,3.00
2022-09-03T03:54:30.921Z,3.30
2022-09-03T03:59:32.588Z,6.07
2022-09-03T04:04:34.293Z,4.18
2022-09-03T04:09:36.160Z,4.22
2022-09-03T04:14:38.429Z,1.70
2022-09-03T04:19:40.164Z,3.17
2022-09-03T04:24:41.940Z,6.00
2022-09-03T04:29:43.675Z,3.05
2022-09-03T04:34:45.844Z,7.93
2022-09-03T04:39:47.624Z,2.78
2022-09-03T04:44:49.444Z,2.60
2022-09-03T04:49:51.205Z,1.98
2022-09-03T04:54:53.133Z,5.82
2022-09-03T04:59:55.397Z,2.88
2022-09-03T05:04:57.137Z,4.22
2022-09-03T05:09:58.941Z,4.80
2022-09-03T05:15:00.667Z,2.15
2022-09-03T05:20:02.537Z,4.78
2022-09-03T05:25:04.544Z,4.18
2022-09-03T05:30:07.121Z,2.47
2022-09-03T05:35:10.651Z,5.40
2022-09-03T05:40:12.492Z,2.47
2022-09-03T05:45:15.381Z,3.17
2022-09-03T05:50:17.151Z,2.75
2022-09-03T05:55:19.711Z,3.13
2022-09-03T06:00:23.607Z,3.22
2022-09-03T06:05:25.383Z,2.63
2022-09-03T06:10:34.432Z,6.30
2022-09-03T06:15:40.555Z,5.40
2022-09-03T06:20:42.227Z,3.00
2022-09-03T06:25:43.924Z,3.40
2022-09-03T06:30:48.036Z,3.33
2022-09-03T06:35:57.495Z,3.30
2022-09-03T06:41:04.569Z,3.78
2022-09-03T06:46:09.940Z,2.05
2022-09-03T06:51:14.284Z,4.40
2022-09-03T06:56:18.975Z,2.13
2022-09-03T07:01:23.830Z,3.83
2022-09-03T07:06:27.940Z,2.45
2022-09-03T07:11:33.261Z,1.83
2022-09-03T07:16:36.913Z,4.18
2022-09-03T07:21:44.039Z,4.87
2022-09-03T07:26:49.151Z,6.38
2022-09-03T07:31:52.627Z,6.50
2022-09-03T07:36:55.184Z,9.57
2022-09-03T07:41:58.173Z,3.47
2022-09-03T07:47:00.791Z,4.43
2022-09-03T07:52:03.017Z,3.33
2022-09-03T07:57:05.014Z,5.55
2022-09-03T08:02:06.908Z,3.28
2022-09-03T08:07:08.640Z,4.93
2022-09-03T08:12:10.399Z,3.33
2022-09-03T08:17:13.396Z,4.47
2022-09-03T08:22:15.181Z,3.42
2022-09-03T08:27:17.565Z,3.60
2022-09-03T08:32:19.316Z,3.17
2022-09-03T08:37:21.072Z,4.50
2022-09-03T08:42:42.120Z,4.13
2022-09-03T08:47:43.774Z,3.65
2022-09-03T08:52:49.009Z,2.70
2022-09-03T08:58:14.119Z,4.68
2022-09-03T09:03:34.768Z,2.83
2022-09-03T09:08:59.030Z,2.30
2022-09-03T09:14:13.184Z,3.30
2022-09-03T09:19:37.550Z,3.67
2022-09-03T09:24:45.391Z,4.80
2022-09-03T09:29:49.941Z,3.28
2022-09-03T09:34:54.975Z,3.03
2022-09-03T09:40:01.056Z,5.72
2022-09-03T09:45:11.217Z,2.58
2022-09-03T09:50:24.778Z,3.05
2022-09-03T09:55:28.856Z,2.88
2022-09-03T10:00:34.143Z,3.60
2022-09-03T10:05:40.558Z,4.32
2022-09-03T10:10:48.975Z,2.30
2022-09-03T10:16:10.894Z,2.75
2022-09-03T10:21:15.795Z,2.50
2022-09-03T10:26:20.749Z,4.00
2022-09-03T10:31:41.772Z,2.63
2022-09-03T10:36:56.777Z,2.75
2022-09-03T10:42:45.721Z,3.38
2022-09-03T10:48:21.304Z,4.28
2022-09-03T10:53:32.190Z,4.18
2022-09-03T10:58:55.803Z,4.18
2022-09-03T11:04:19.878Z,4.85
2022-09-03T11:09:35.404Z,2.93
2022-09-03T11:14:46.861Z,5.18
2022-09-03T11:20:25.412Z,10.32
2022-09-03T11:25:37.425Z,3.22
2022-09-03T11:31:00.246Z,5.60
2022-09-03T11:36:09.351Z,5.30
2022-09-03T11:41:35.651Z,3.45
2022-09-03T11:46:41.149Z,4.55
2022-09-03T11:51:44.100Z,3.63
2022-09-03T11:56:45.805Z,3.05
2022-09-03T12:01:56.752Z,3.53
2022-09-03T12:07:17.584Z,3.40
2022-09-03T12:12:32.553Z,5.65
2022-09-03T12:18:16.172Z,2.65
2022-09-03T12:23:39.803Z,4.95
2022-09-03T12:28:45.599Z,3.78
2022-09-03T12:33:49.357Z,3.17
2022-09-03T12:39:11.022Z,3.30
2022-09-03T12:44:13.733Z,4.57
2022-09-03T12:49:31.206Z,5.32
2022-09-03T12:54:37.616Z,6.07
2022-09-03T12:59:39.909Z,4.90
2022-09-03T13:04:42.273Z,2.55
2022-09-03T13:09:47.180Z,4.72
2022-09-03T13:14:52.530Z,3.45
2022-09-03T13:20:19.507Z,5.15
2022-09-03T13:25:28.968Z,4.13
2022-09-03T13:30:43.081Z,2.40
2022-09-03T13:36:05.554Z,2.75
2022-09-03T13:41:20.183Z,4.53
2022-09-03T13:46:33.395Z,6.20
2022-09-03T13:51:49.756Z,3.75
2022-09-03T13:57:05.519Z,4.28
2022-09-03T14:02:32.003Z,3.53
2022-09-03T14:07:57.566Z,5.32
2022-09-03T14:13:14.468Z,3.22
2022-09-03T14:18:35.715Z,2.42
2022-09-03T14:23:53.812Z,3.05
2022-09-03T14:29:20.955Z,3.28
2022-09-03T14:34:37.439Z,2.17
2022-09-03T14:40:10.306Z,3.30
2022-09-03T14:45:39.396Z,2.75
2022-09-03T14:51:19.201Z,2.40
2022-09-03T14:56:39.461Z,3.53
2022-09-03T15:01:43.672Z,2.38
2022-09-03T15:11:57.404Z,3.65
2022-09-03T15:17:17.389Z,6.05
2022-09-03T15:22:54.190Z,3.00
2022-09-03T15:28:34.871Z,2.90
2022-09-03T15:34:08.814Z,2.92
2022-09-03T15:39:21.137Z,4.13
2022-09-03T15:44:25.151Z,3.88
2022-09-03T15:49:36.034Z,3.70
2022-09-03T15:54:48.155Z,3.75
2022-09-03T16:00:06.117Z,3.40
2022-09-03T16:05:46.642Z,4.47
2022-09-03T16:11:12.958Z,3.35
2022-09-03T16:16:42.311Z,2.42
2022-09-03T16:22:13.708Z,4.60
2022-09-03T16:27:25.153Z,6.75
2022-09-03T16:32:59.752Z,3.63
2022-09-03T16:38:20.624Z,4.70
2022-09-03T16:43:54.957Z,2.63
2022-09-03T16:49:33.701Z,3.30
2022-09-03T16:55:11.806Z,2.72
2022-09-03T17:00:19.742Z,6.47
2022-09-03T17:05:39.894Z,6.35
2022-09-03T17:11:18.873Z,5.18
2022-09-03T17:16:32.231Z,3.47
2022-09-03T17:22:06.175Z,3.20
2022-09-03T17:27:11.021Z,4.28
2022-09-03T17:32:33.936Z,4.60
2022-09-03T17:37:55.560Z,3.97
2022-09-03T17:43:19.351Z,5.05
2022-09-03T17:48:51.432Z,5.65
2022-09-03T17:54:32.049Z,5.35
2022-09-03T18:00:05.981Z,3.92
2022-09-03T18:05:07.853Z,6.60
2022-09-03T18:10:18.276Z,7.68
2022-09-03T18:15:31.109Z,5.20
2022-09-03T18:27:26.593Z,4.80
2022-09-03T18:32:49.323Z,5.75
2022-09-03T18:38:09.986Z,6.60
2022-09-03T18:44:03.066Z,4.72
2022-09-03T18:49:38.361Z,4.35
2022-09-03T18:55:20.701Z,6.82
2022-09-03T19:00:42.312Z,4.72
2022-09-03T19:06:36.248Z,5.43
2022-09-03T19:12:22.380Z,7.07
2022-09-03T19:18:00.144Z,7.35
2022-09-03T19:23:22.073Z,5.97
2022-09-03T19:28:44.696Z,8.80
2022-09-03T19:34:46.516Z,6.82
2022-09-03T19:40:20.217Z,6.75
2022-09-03T19:46:04.916Z,7.97
2022-09-03T19:51:39.244Z,8.43
2022-09-03T19:57:00.244Z,8.68
2022-09-03T20:02:20.880Z,7.80
2022-09-03T20:07:41.520Z,11.98
2022-09-03T20:12:49.892Z,11.00
2022-09-03T20:18:17.160Z,9.73
2022-09-03T20:23:37.097Z,9.00
2022-09-03T20:29:09.879Z,11.82
2022-09-03T20:34:33.524Z,10.55
2022-09-03T20:40:07.710Z,10.95
2022-09-03T20:45:17.690Z,14.13
2022-09-03T20:50:27.407Z,12.57
2022-09-03T20:55:54.236Z,11.88
2022-09-03T21:01:10.016Z,12.00
2022-09-03T21:06:14.545Z,11.95
2022-09-03T21:17:04.877Z,10.32
2022-09-03T21:23:01.768Z,12.68
2022-09-03T21:28:24.461Z,12.13
2022-09-03T21:33:31.615Z,11.30
2022-09-03T21:38:38.240Z,10.98
2022-09-03T21:44:00.537Z,13.32
2022-09-03T21:49:12.091Z,12.32
2022-09-03T21:54:30.049Z,11.82
2022-09-03T21:59:56.303Z,17.67
2022-09-03T22:04:59.201Z,15.20
2022-09-03T22:10:16.674Z,13.90
2022-09-03T22:15:20.847Z,13.15
2022-09-03T22:20:24.785Z,16.58
2022-09-03T22:25:58.948Z,19.30
2022-09-03T22:31:15.380Z,18.97
2022-09-03T22:36:28.428Z,21.35
2022-09-03T22:41:45.281Z,22.33
2022-09-03T22:47:10.887Z,19.63
2022-09-03T22:52:23.373Z,21.40
2022-09-03T22:57:29.122Z,22.13
2022-09-03T23:02:32.265Z,21.67
2022-09-03T23:07:53.783Z,20.13
2022-09-03T23:13:10.937Z,17.30
2022-09-03T23:18:22.222Z,21.02
2022-09-03T23:23:31.746Z,21.77
2022-09-03T23:28:36.695Z,18.63
2022-09-03T23:33:39.396Z,21.55
2022-09-03T23:39:09.167Z,19.13
2022-09-03T23:44:34.745Z,20.05
2022-09-03T23:49:39.463Z,19.00
2022-09-03T23:54:52.969Z,19.33
